Pagrindinis puslapis
METAR-TAF:

METAR-TAF

Oro uostai :

Bušehras, Iranas

platuma: 28-59N, ilguma: 050-50E, Aukštis: 19 m

Dabartinis oras

Ataskaita buvo paskelbta 19 minutes, ne 11:00 UTC
Vėjas 10 kt iš Vakarų
Temperatūra 25°C
Drėgmė 47%
Slėgis 1015 hPa
Matomumas 10 km arba daugiau
nėra debesų žemiau 1500 m ir nėra kamuolinių lietaus debesų

METAR: OIBB 301100Z 27010KT CAVOK 25/13 Q1015 A2998

Laikas: 14:49 (11:19 UTC)

Prognozė

Ataskaita buvo paskelbta 2 valandos ir 49 minutes, ne 08:30 UTC
Prognozė galioja nuo 30 metu 09 UTC su 30 metu 18 UTC
Vėjas 8 kt iš Vakarų/Šiaurės Vakarų
Matomumas: 7000 m

TAF: OIBB 300830Z 3009/3018 30008KT 7000 NSC

Orai ataskaitas ir orų prognozės (METAR, TAF).

turimą stotys yra geltonos ir raudonos taškus žemėlapyje.

Perkelti pele per norėdami pamatyti stoties vardą.

Tada spustelėkite, norėdami matyti oro stebėjimo ir prognozės.

Norėdami pakeisti žemėlapį: spustelėkite ant žalios mygtukų su juodo kryžiaus žemyn,; žalią mygtuką su brūkšneliu, jei norite nutolinti; arba žalių rodyklių gretimoms žemėlapius.


METAR-TAF: